KJST

John Murtha Johnstown-Cambria Co Airport

Johnstown, Pennsylvania, USA
METAR KJST 231054Z AUTO 26012KT 10SM SCT037 07/01 A3002 RMK AO2 SLP176 T00720011
Observed Flight Rules
Oct-23 @ 10:54 UTC (56 minutes ago) Visual Flight Rules
Wind Visibility Clouds
260° at 12 knots 10 miles
  • Scattered at 3,700' AGL
Temperatures Readings
Current 7°C / 45°F
Dewpoint 1°C / 34°F
Humidity 66%
Altimeter 30.02" Hg
Pressure 1017.6 hPa
Elevation 694
METAR KJST 231054Z AUTO 26012KT 10SM SCT037 07/01 A3002 RMK AO2 SLP176 T00720011
Observed Flight Rules
Oct-23 @ 10:54 UTC
(56 minutes ago)
VFR
Wind Visibility
260° at 12 knots 10 miles
Clouds
  • Scattered at 3,700' AGL
Temperature Dewpoint
7°C / 45°F 1°C / 34°F
Humidity Altimeter Pressure
66% 30.02" Hg 1017.6 hPa